Sunday, November 19, 2017, 9:04 AM EST
Back to Local

KALB, Albany International Airport

Location: Latham, NY, United States Lat: 42.75
Local Time: 9:04 AM EST (14:04 GMT) Lon: -73.8
Time Zone: US/Eastern Elev: 285 ft

Show me the last for .
Show Decoded

2017-11-19 08:51 METAR KALB 191351Z 28025G49KT 10SM FEW028 BKN060 OVC075 06/00 A2923 RMK AO2 PK
                 WND 28049/1349 WSHFT 1238 RAE11 SLP901 VCSH SW-NW BINOVC T00610000 PNO $ =
2017-11-19 07:56 METAR KALB 191256Z COR 29024G36KT 3SM -RA BR FEW008 BKN034 OVC060 08/04 A2918 =
2017-11-19 07:51 METAR KALB 191251Z 28027G39KT 2 1/2SM -RA SQ SCT008 BKN034 OVC055 09/06 A2917
                 RMK AO2 PK WND 26039/1245 WSHFT 1235 TWR VIS 3 RAB35 SLP880 FROPA P0003
                 T00890056 =
2017-11-19 07:49 METAR KALB 191249Z 28026G39KT 2SM -RA SQ SCT008 BKN034 OVC055 09/07 A2917 RMK
                 AO2 PK WND 26039/1245 WSHFT 1235 TWR VIS 3 RAB35 PRESRR FROPA P0003 =
2017-11-19 07:35 METAR KALB 191235Z COR 20013KT 7SM -RA SCT008 BKN045 OVC065 11/09 A2911 RMK AO2
                 RAB35 P0000 T01060089 =
2017-11-19 06:51 METAR KALB 191151Z 18015G23KT 10SM BKN009 BKN012 BKN110 BKN150 OVC250 11/08
                 A2910 RMK AO2 PK WND 17029/1056 SLP854 SHRA DSNT ALQDS 60010 70020 T01060083
                 10106 20078 56011 =
2017-11-19 06:47 METAR KALB 191147Z 18016G22KT 10SM BKN009 BKN012 BKN110 BKN150 OVC250 11/08
                 A2910 RMK AO2 PK WND 17029/1056 SHRA DSNT ALQDS =
2017-11-19 06:24 METAR KALB 191124Z 17015G22KT 10SM FEW009 SCT012 BKN110 BKN150 OVC250 11/08
                 A2909 RMK AO2 PK WND 17029/1056 PRESENT WX VCSH BINOVC T01060083 =
2017-11-19 05:51 METAR KALB 191051Z 17014G26KT 10SM SCT009 BKN012 OVC048 11/08 A2910 RMK AO2 PK
                 WND 17026/1049 RAE18DZB18E32 SLP855 PRESENT WX VCSH P0000 T01060083 =
2017-11-19 05:40 METAR KALB 191040Z 17014G23KT 10SM SCT009 BKN012 OVC048 11/08 A2911 RMK AO2
                 RAE18DZB18E32 PRESENT WX VCSH P0000 T01060083 =
2017-11-19 04:51 METAR KALB 190951Z 17016G28KT 10SM -RA BKN009 BKN012 BKN110 OVC140 10/08 A2913
                 RMK AO2 PK WND 17028/0946 RAE11B51DZB11E17 SLP865 PCPN VRY LGT P0000 T01000078 =
2017-11-19 04:17 METAR KALB 190917Z 18018G26KT 10SM BKN009 BKN012 BKN110 OVC140 09/07 A2914 RMK
                 AO2 PK WND 16026/0910 RAE11DZB11E17 P0000 T00940072 =
2017-11-19 03:51 METAR KALB 190851Z 17016G25KT 10SM -RA FEW006 BKN012 BKN110 OVC140 09/07 A2915
                 RMK AO2 RAE0757B48DZB0757E02 SLP873 P0000 60010 T00940072 58049 =
2017-11-19 03:32 METAR KALB 190832Z 17017G24KT 10SM SCT006 SCT010 BKN045 OVC140 09/07 A2916 RMK
                 AO2 RAE0757DZB0757E02 VCSH W-NW P0000 T00890067 =
2017-11-19 02:51 METAR KALB 190751Z 21011G22KT 10SM -RA OVC008 09/07 A2920 RMK AO2
                 RAE21B51DZB21E33 CIG 006V011 SLP890 PCPN VRY LGT P0003 T00890067 =
2017-11-19 02:03 METAR KALB 190703Z 17012G20KT 8SM -RA BKN008 BKN011 OVC055 08/06 A2924 RMK AO2
                 P0001 T00780061 =
2017-11-19 01:51 METAR KALB 190651Z 18012G21KT 8SM -RA BKN011 BKN055 OVC085 08/06 A2925 RMK AO2
                 SLP906 P0007 T00780061 =
2017-11-19 01:27 METAR KALB 190627Z 17012G19KT 8SM -RA BKN011 BKN030 OVC085 08/06 A2926 RMK AO2
                 BKN011 V SCT P0004 T00780056 =
2017-11-19 00:51 METAR KALB 190551Z 18013G20KT 8SM -RA SCT012 BKN060 OVC075 08/06 A2930 RMK AO2
                 PRESFR SLP923 SCT V BKN P0003 60008 T00780056 10078 20056 56039 =
2017-11-19 00:44 METAR KALB 190544Z 18015KT 9SM -RA SCT014 BKN060 OVC075 08/05 A2931 RMK AO2 SCT
                 V BKN P0002 T00780050 =
2017-11-18 23:51 METAR KALB 190451Z 17013G25KT 10SM -RA BKN011 OVC016 08/05 A2933 RMK AO2 SLP935
                 PCPN VRY LGT P0000 T00780050 400781061 =
2017-11-18 22:51 METAR KALB 190351Z 18013G24KT 9SM -RA BKN011 OVC020 07/04 A2936 RMK AO2 RAE10B36
                 SLP944 P0000 T00720044 =
2017-11-18 21:51 METAR KALB 190251Z 18015G24KT 7SM -RA OVC011 06/04 A2941 RMK AO2 RAB14 CIG
                 009V013 PRESFR SLP962 P0001 60005 T00610039 58041 =
2017-11-18 20:51 METAR KALB 190151Z 18012KT 9SM BKN013 OVC039 06/04 A2947 RMK AO2 RAE39 SLP980
                 P0000 T00610039 =
2017-11-18 20:17 METAR KALB 190117Z 17012G19KT 8SM -RA BKN013 OVC039 06/04 A2949 RMK AO2 P0000
                 T00610039 =
2017-11-18 19:51 METAR KALB 190051Z 17009KT 140V200 7SM -RA BKN015 OVC039 06/03 A2950 RMK AO2
                 RAE31B48 SLP991 P0004 T00560033 =
2017-11-18 19:37 METAR KALB 190037Z 17008KT 10SM BKN015 BKN039 OVC050 06/03 A2951 RMK AO2 RAE31
                 P0004 T00560033 =
2017-11-18 18:51 METAR KALB 182351Z 17013G19KT 7SM -RA BKN047 OVC060 06/02 A2954 RMK AO2 RAB31
                 SLP005 P0000 60002 T00610022 10061 20050 56028 =
2017-11-18 17:51 METAR KALB 182251Z 17012G21KT 10SM BKN034 OVC043 06/02 A2957 RMK AO2 RAB13E50
                 SLP015 P0002 T00610017 =
2017-11-18 16:51 METAR KALB 182151Z 18013G19KT 10SM OVC036 06/00 A2959 RMK AO2 SLP022 T00610000 =
2017-11-18 15:51 METAR KALB 182051Z 17014G22KT 10SM OVC040 06/M02 A2962 RMK AO2 SLP033 T00611017
                 56026 =
2017-11-18 14:51 METAR KALB 181951Z 17014G19KT 10SM OVC045 06/M03 A2964 RMK AO2 SLP040 SHRA DSNT
                 S-SW T00611033 =
2017-11-18 13:51 METAR KALB 181851Z 18011G22KT 10SM BKN055 OVC065 06/M04 A2965 RMK AO2 SLP045
                 SHRA DSNT E-SE T00561039 =
2017-11-18 12:51 METAR KALB 181751Z 17013G17KT 10SM BKN090 OVC110 05/M06 A2970 RMK AO2 SLP059
                 60000 T00501056 10050 21044 58050 =
2017-11-18 11:51 METAR KALB 181651Z 17008KT 10SM FEW070 OVC110 02/M06 A2976 RMK AO2 RAB00E14
                 SLP079 VIRGA OHD P0000 T00221061 =
2017-11-18 10:51 METAR KALB 181551Z 16005KT 10SM BKN100 OVC130 01/M08 A2979 RMK AO2 SLP091 VCSH
                 SW-NW T00061078 =
2017-11-18 09:51 METAR KALB 181451Z VRB06KT 10SM FEW100 BKN140 OVC270 M01/M08 A2985 RMK AO2
                 SLP110 T10061083 58028 =

Support USWX by starting your Amazon purchase here.